Iola, WI (54945)

10:58 AM CDT on March 30, 2017 (GMT -0500)
Corks Repair | | Change Station

Elev 950 ft 44.55 °N, 89.19 °W | Updated 6 seconds ago

Overcast
Overcast
34.0 °F
Feels Like 26 °F
N
10.5
Wind Variable Wind from NE
Gusts 15.0 mph

Today
High -- | Low -- °F
--% Chance of Precip.
Yesterday
High -- | Low -- °F
Precip. -- in
Pressure 29.92 in
Visibility 10.0 miles
Clouds Mostly Cloudy 700 ft
Overcast 1300 ft
Windchill 26 °F
Dew Point 29 °F
Humidity 82%
Rainfall 0.11 in
Snow Depth Not available.
6:40 AM 7:21 PM
Waxing Crescent, 9% visible
METAR KPCZ 301555Z AUTO 03010G19KT 10SM -RA BKN007 OVC013 02/01 A2992 RMK AO2 T00210010
Pressure 29.92 in
Visibility 10.0 miles
Clouds Mostly Cloudy 700 ft
Overcast 1300 ft
Windchill 26 °F
Dew Point 29 °F
Humidity 82%
Rainfall 0.11 in
Snow Depth Not available.
6:40 AM 7:21 PM
Waxing Crescent, 9% visible
METAR KPCZ 301555Z AUTO 03010G19KT 10SM -RA BKN007 OVC013 02/01 A2992 RMK AO2 T00210010

Get Severe Weather Alerts

Thanks for signing up!

Be on the lookout for a verification email in your inbox.

You'll start receiving the daily forecast at 8 AM.

×

10-Day Weather Forecast

Almanac

Astronomy

Mar. 30, 2017 Rise Set
Actual Time
Civil Twilight
Nautical Twilight
Astronomical Twilight
Moon
Length of Visible Light
Length of Day
Tomorrow will be .
, % of the Moon is Illuminated

Today's Extremes

State Highs State Lows

Community

WunderPhotos

Upload Photos

1,962,540 photos uploaded!

WunderBlog® & News

Nearby

Air Quality

  Air Quality AQ Index Pollutant
Not available.

Snow Depth

Station Depth Elevation

Earthquake Activity

City Distance Mag. Time & Date
Minimum magnitude displayed is 2.5.

Earthquake Activity

City Distance Mag. Time & Date
Minimum magnitude displayed is 2.5.

Coastal Water Temperatures

Place Temperature

Stations

Nearby Weather Stations

Station Location Temp. Windchill Dew Point Humidity Wind Precip. Elev Updated Type
                   

Watches & Warnings

There are currently no watches in effect.